createdAt,value
2023-05-22T00:01:52.983Z,101379.13
2023-05-22T00:04:54.761Z,101381.38
2023-05-22T00:07:56.726Z,101379.97
2023-05-22T00:10:58.413Z,101374.88
2023-05-22T00:14:00.088Z,101381.53
2023-05-22T00:17:01.747Z,101377.28
2023-05-22T00:20:08.348Z,101374.16
2023-05-22T00:23:14.642Z,101368.19
2023-05-22T00:26:17.254Z,101364.19
2023-05-22T00:29:18.874Z,101365.63
2023-05-22T00:32:20.497Z,101366.03
2023-05-22T00:35:22.188Z,101361.91
2023-05-22T00:38:34.189Z,101354.25
2023-05-22T00:41:36.006Z,101351.13
2023-05-22T00:44:37.640Z,101356.03
2023-05-22T00:47:39.582Z,101359.88
2023-05-22T00:50:42.311Z,101357.59
2023-05-22T00:53:45.045Z,101356.16
2023-05-22T00:56:48.351Z,101357.44
2023-05-22T00:59:50.445Z,101353.16
2023-05-22T01:02:52.221Z,101352.56
2023-05-22T01:05:54.090Z,101354.72
2023-05-22T01:08:55.666Z,101346.19
2023-05-22T01:12:01.498Z,101341.06
2023-05-22T01:15:21.966Z,101342.06
2023-05-22T01:18:57.827Z,101335.22
2023-05-22T01:22:21.645Z,101328.44
2023-05-22T01:25:35.044Z,101316.22
2023-05-22T01:28:36.584Z,101324.69
2023-05-22T01:31:41.188Z,101318.59
2023-05-22T01:34:45.209Z,101323.44
2023-05-22T01:37:47.738Z,101320.13
2023-05-22T01:40:50.006Z,101317.72
2023-05-22T01:43:52.148Z,101316.28
2023-05-22T01:46:54.116Z,101313.16
2023-05-22T01:49:56.044Z,101316.25
2023-05-22T01:53:20.062Z,101318.31
2023-05-22T01:56:31.895Z,101315.88
2023-05-22T01:59:40.027Z,101315.31
2023-05-22T02:02:46.459Z,101314.72
2023-05-22T02:05:53.144Z,101309.59
2023-05-22T02:08:55.609Z,101308.19
2023-05-22T02:11:59.140Z,101309.44
2023-05-22T02:15:01.391Z,101315.94
2023-05-22T02:18:03.237Z,101303.00
2023-05-22T02:21:08.587Z,101302.41
2023-05-22T02:24:10.836Z,101300.84
2023-05-22T02:27:12.965Z,101295.75
2023-05-22T02:30:15.343Z,101293.31
2023-05-22T02:33:18.631Z,101298.09
2023-05-22T02:36:20.709Z,101293.97
2023-05-22T02:39:22.543Z,101295.09
2023-05-22T02:42:24.421Z,101289.00
2023-05-22T02:45:26.084Z,101289.09
2023-05-22T02:48:29.376Z,101281.19
2023-05-22T02:51:30.950Z,101286.69
2023-05-22T02:54:32.537Z,101285.84
2023-05-22T02:57:35.724Z,101283.16
2023-05-22T03:00:41.368Z,101280.31
2023-05-22T03:03:43.815Z,101276.91
2023-05-22T03:06:46.731Z,101277.78
2023-05-22T03:09:48.319Z,101264.44
2023-05-22T03:12:51.851Z,101261.03
2023-05-22T03:15:53.503Z,101270.09
2023-05-22T03:19:16.355Z,101265.69
2023-05-22T03:22:18.722Z,101263.88
2023-05-22T03:25:21.588Z,101266.66
2023-05-22T03:28:23.171Z,101267.66
2023-05-22T03:31:26.180Z,101264.28
2023-05-22T03:34:27.789Z,101266.22
2023-05-22T03:37:29.532Z,101260.97
2023-05-22T03:40:31.073Z,101266.34
2023-05-22T03:43:32.703Z,101269.03
2023-05-22T03:46:34.303Z,101253.06
2023-05-22T03:49:36.057Z,101262.94
2023-05-22T03:52:38.089Z,101257.72
2023-05-22T03:55:39.854Z,101254.03
2023-05-22T03:58:41.457Z,101260.41
2023-05-22T04:01:43.068Z,101263.91
2023-05-22T04:04:47.569Z,101262.22
2023-05-22T04:07:49.194Z,101261.38
2023-05-22T04:10:50.856Z,101263.09
2023-05-22T04:13:52.432Z,101263.09
2023-05-22T04:16:54.359Z,101264.91
2023-05-22T04:19:58.209Z,101265.91
2023-05-22T04:22:59.797Z,101264.06
2023-05-22T04:26:02.700Z,101263.22
2023-05-22T04:29:04.383Z,101265.03
2023-05-22T04:32:06.409Z,101260.66
2023-05-22T04:35:10.179Z,101261.63
2023-05-22T04:38:11.816Z,101266.28
2023-05-22T04:41:13.564Z,101266.28
2023-05-22T04:44:15.123Z,101273.38
2023-05-22T04:47:16.759Z,101267.16
2023-05-22T04:50:18.880Z,101269.69
2023-05-22T04:53:20.555Z,101262.63
2023-05-22T04:56:35.332Z,101264.31
2023-05-22T04:59:41.423Z,101265.03
2023-05-22T05:02:43.320Z,101264.06
2023-05-22T05:05:44.991Z,101269.19
2023-05-22T05:08:48.025Z,101268.19
2023-05-22T05:11:50.664Z,101256.91
2023-05-22T05:14:52.285Z,101256.25
2023-05-22T05:17:53.883Z,101260.63
2023-05-22T05:20:55.645Z,101258.69
2023-05-22T05:23:57.782Z,101256.00
2023-05-22T05:27:00.049Z,101252.47
2023-05-22T05:30:02.818Z,101257.69
2023-05-22T05:33:05.573Z,101253.16
2023-05-22T05:36:08.392Z,101258.28
2023-05-22T05:39:10.852Z,101254.59
2023-05-22T05:42:12.564Z,101255.34
2023-05-22T05:45:15.905Z,101257.75
2023-05-22T05:48:17.512Z,101260.31
2023-05-22T05:51:20.336Z,101261.88
2023-05-22T05:54:22.420Z,101269.81
2023-05-22T05:57:24.065Z,101274.06
2023-05-22T06:00:26.235Z,101283.56
2023-05-22T06:03:27.900Z,101276.09
2023-05-22T06:06:35.740Z,101282.78
2023-05-22T06:09:37.278Z,101281.53
2023-05-22T06:12:38.998Z,101276.75
2023-05-22T06:15:41.312Z,101280.00
2023-05-22T06:18:42.986Z,101278.75
2023-05-22T06:21:44.558Z,101286.53
2023-05-22T06:24:46.264Z,101293.38
2023-05-22T06:27:47.812Z,101299.25
2023-05-22T06:30:49.485Z,101298.56
2023-05-22T06:33:52.072Z,101293.47
2023-05-22T06:36:53.777Z,101299.47
2023-05-22T06:39:55.418Z,101302.59
2023-05-22T06:42:58.843Z,101300.47
2023-05-22T06:46:00.526Z,101300.78
2023-05-22T06:49:02.213Z,101301.34
2023-05-22T06:52:05.330Z,101292.84
2023-05-22T06:55:07.831Z,101282.66
2023-05-22T06:58:09.483Z,101284.50
2023-05-22T07:01:11.200Z,101279.09
2023-05-22T07:04:13.473Z,101270.06
2023-05-22T07:07:15.051Z,101279.81
2023-05-22T07:10:16.632Z,101280.81
2023-05-22T07:13:18.241Z,101277.44
2023-05-22T07:16:19.904Z,101285.63
2023-05-22T07:19:21.550Z,101284.06
2023-05-22T07:22:23.192Z,101282.50
2023-05-22T07:25:24.757Z,101285.34
2023-05-22T07:28:26.713Z,101281.94
2023-05-22T07:31:28.370Z,101286.59
2023-05-22T07:34:34.485Z,101286.47
2023-05-22T07:37:36.532Z,101288.44
2023-05-22T07:40:38.410Z,101299.06
2023-05-22T07:43:40.262Z,101309.69
2023-05-22T07:46:41.866Z,101323.59
2023-05-22T07:49:43.524Z,101336.53
2023-05-22T07:52:45.149Z,101339.53
2023-05-22T07:55:46.835Z,101350.47
2023-05-22T08:01:50.579Z,101353.63
2023-05-22T08:04:52.428Z,101353.34
2023-05-22T08:07:54.094Z,101360.34
2023-05-22T08:11:04.173Z,101352.09
2023-05-22T08:14:06.473Z,101350.16
2023-05-22T08:17:08.184Z,101346.72
2023-05-22T08:20:11.023Z,101342.34
2023-05-22T08:23:12.741Z,101338.94
2023-05-22T08:26:15.045Z,101332.78
2023-05-22T08:32:18.514Z,101329.78
2023-05-22T08:35:20.109Z,101315.88
2023-05-22T08:38:22.087Z,101300.97
2023-05-22T08:41:23.804Z,101311.59
2023-05-22T08:44:25.543Z,101296.53
2023-05-22T08:47:28.551Z,101301.88
2023-05-22T08:50:30.222Z,101296.06
2023-05-22T08:53:35.852Z,101297.88
2023-05-22T08:56:45.421Z,101292.78
2023-05-22T08:59:54.929Z,101295.47
2023-05-22T09:02:57.591Z,101302.41
2023-05-22T09:05:59.820Z,101298.75
2023-05-22T09:09:01.594Z,101297.63
2023-05-22T09:12:04.493Z,101296.50
2023-05-22T09:15:13.612Z,101291.69
2023-05-22T09:18:15.237Z,101292.66
2023-05-22T09:21:28.771Z,101285.00
2023-05-22T09:24:31.302Z,101278.44
2023-05-22T09:27:34.017Z,101273.47
2023-05-22T09:30:36.541Z,101276.59
2023-05-22T09:33:38.274Z,101271.91
2023-05-22T09:36:40.750Z,101272.50
2023-05-22T09:39:46.999Z,101274.91
2023-05-22T09:42:48.633Z,101275.50
2023-05-22T09:45:56.987Z,101280.19
2023-05-22T09:49:01.640Z,101272.28
2023-05-22T09:52:08.058Z,101272.44
2023-05-22T09:55:10.766Z,101269.34
2023-05-22T09:58:14.096Z,101264.50
2023-05-22T10:01:17.003Z,101264.94
2023-05-22T10:04:19.222Z,101269.91
2023-05-22T10:07:37.838Z,101277.56
2023-05-22T10:10:42.709Z,101277.03
2023-05-22T10:13:47.531Z,101282.69
2023-05-22T10:16:49.488Z,101283.03
2023-05-22T10:19:53.303Z,101284.44
2023-05-22T10:22:56.013Z,101277.50
2023-05-22T10:25:57.969Z,101278.94
2023-05-22T10:29:10.851Z,101267.84
2023-05-22T10:32:37.089Z,101273.66
2023-05-22T10:35:50.271Z,101269.97
2023-05-22T10:39:23.894Z,101272.41
2023-05-22T10:42:29.768Z,101263.28
2023-05-22T10:45:32.033Z,101257.63
2023-05-22T10:48:38.634Z,101254.81
2023-05-22T10:51:40.499Z,101254.66
2023-05-22T10:54:46.236Z,101256.22
2023-05-22T10:57:48.405Z,101264.03
2023-05-22T11:00:50.716Z,101261.75
2023-05-22T11:03:59.469Z,101265.84
2023-05-22T11:07:06.819Z,101262.72
2023-05-22T11:10:08.576Z,101264.13
2023-05-22T11:13:13.228Z,101261.97
2023-05-22T11:16:16.037Z,101261.00
2023-05-22T11:19:23.680Z,101254.47
2023-05-22T11:22:50.158Z,101237.25
2023-05-22T11:25:51.883Z,101236.28
2023-05-22T11:28:53.922Z,101214.69
2023-05-22T11:31:57.891Z,101212.97
2023-05-22T11:35:00.308Z,101212.84
2023-05-22T11:38:06.815Z,101209.13
2023-05-22T11:41:11.738Z,101201.78
2023-05-22T11:44:13.335Z,101193.53
2023-05-22T11:47:15.335Z,101194.09
2023-05-22T11:50:29.400Z,101189.53
2023-05-22T11:53:36.147Z,101185.16
2023-05-22T11:56:38.201Z,101178.91
2023-05-22T11:59:40.080Z,101182.56
2023-05-22T12:02:47.180Z,101178.03
2023-05-22T12:05:51.064Z,101177.31
2023-05-22T12:08:52.998Z,101172.91
2023-05-22T12:11:56.643Z,101171.25
2023-05-22T12:14:58.288Z,101169.53
2023-05-22T12:17:59.873Z,101164.41
2023-05-22T12:21:01.499Z,101164.75
2023-05-22T12:24:04.777Z,101163.03
2023-05-22T12:27:10.311Z,101160.63
2023-05-22T12:30:15.596Z,101159.22
2023-05-22T12:33:17.494Z,101156.13
2023-05-22T12:36:19.256Z,101148.56
2023-05-22T12:39:21.305Z,101146.13
2023-05-22T12:42:23.048Z,101137.47
2023-05-22T12:45:25.121Z,101137.94
2023-05-22T12:48:26.759Z,101126.44
2023-05-22T12:51:30.504Z,101125.75
2023-05-22T12:54:32.071Z,101126.03
2023-05-22T12:57:33.650Z,101117.25
2023-05-22T13:00:35.754Z,101104.91
2023-05-22T13:03:37.509Z,101102.22
2023-05-22T13:06:39.121Z,101101.19
2023-05-22T13:09:40.705Z,101105.44
2023-05-22T13:12:43.162Z,101100.63
2023-05-22T13:15:45.854Z,101099.19
2023-05-22T13:18:47.988Z,101098.72
2023-05-22T13:21:49.778Z,101094.88
2023-05-22T13:24:51.372Z,101092.59
2023-05-22T13:27:53.191Z,101090.84
2023-05-22T13:30:54.924Z,101092.81
2023-05-22T13:33:56.589Z,101087.97
2023-05-22T13:36:58.407Z,101082.28
2023-05-22T13:40:00.030Z,101077.56
2023-05-22T13:43:01.686Z,101084.53
2023-05-22T13:46:04.206Z,101078.28
2023-05-22T13:49:05.830Z,101064.59
2023-05-22T13:52:07.425Z,101064.31
2023-05-22T13:55:09.136Z,101070.97
2023-05-22T13:58:10.747Z,101070.50
2023-05-22T14:01:12.419Z,101078.69
2023-05-22T14:04:14.043Z,101087.56
2023-05-22T14:07:16.030Z,101097.44
2023-05-22T14:10:17.795Z,101098.50
2023-05-22T14:13:19.445Z,101089.13
2023-05-22T14:16:22.798Z,101092.34
2023-05-22T14:19:24.714Z,101091.09
2023-05-22T14:22:26.345Z,101096.88
2023-05-22T14:25:27.983Z,101093.81
2023-05-22T14:28:31.804Z,101088.28
2023-05-22T14:31:44.946Z,101090.69
2023-05-22T14:34:46.672Z,101087.50
2023-05-22T14:37:48.342Z,101074.50
2023-05-22T14:40:49.968Z,101083.84
2023-05-22T14:43:51.584Z,101072.25
2023-05-22T14:46:53.728Z,101070.47
2023-05-22T14:49:57.657Z,101077.94
2023-05-22T14:53:04.610Z,101074.44
2023-05-22T14:56:06.338Z,101074.63
2023-05-22T14:59:07.974Z,101075.19
2023-05-22T15:02:09.669Z,101082.31
2023-05-22T15:05:11.817Z,101079.72
2023-05-22T15:08:13.569Z,101078.59
2023-05-22T15:11:15.208Z,101084.56
2023-05-22T15:14:17.239Z,101079.66
2023-05-22T15:17:18.869Z,101076.31
2023-05-22T15:20:20.636Z,101085.78
2023-05-22T15:23:25.292Z,101082.41
2023-05-22T15:26:27.037Z,101086.47
2023-05-22T15:29:29.428Z,101088.94
2023-05-22T15:32:33.912Z,101080.31
2023-05-22T15:35:35.878Z,101073.19
2023-05-22T15:38:37.518Z,101066.47
2023-05-22T15:41:39.094Z,101072.25
2023-05-22T15:44:40.691Z,101067.34
2023-05-22T15:47:42.937Z,101062.78
2023-05-22T15:50:44.691Z,101064.13
2023-05-22T15:53:46.323Z,101073.06
2023-05-22T15:56:47.935Z,101070.94
2023-05-22T15:59:50.956Z,101069.88
2023-05-22T16:02:53.077Z,101079.16
2023-05-22T16:05:55.401Z,101080.31
2023-05-22T16:08:56.987Z,101072.00
2023-05-22T16:11:58.614Z,101084.44
2023-05-22T16:15:01.273Z,101071.56
2023-05-22T16:18:04.975Z,101075.19
2023-05-22T16:21:07.051Z,101078.56
2023-05-22T16:24:09.954Z,101079.31
2023-05-22T16:27:11.559Z,101082.81
2023-05-22T16:30:16.805Z,101081.44
2023-05-22T16:33:18.728Z,101084.41
2023-05-22T16:36:20.559Z,101088.41
2023-05-22T16:39:22.196Z,101105.25
2023-05-22T16:42:23.903Z,101091.34
2023-05-22T16:45:25.582Z,101087.28
2023-05-22T16:48:27.205Z,101084.31
2023-05-22T16:51:28.915Z,101092.88
2023-05-22T16:54:30.526Z,101086.22
2023-05-22T16:57:32.149Z,101087.00
2023-05-22T17:00:33.889Z,101081.13
2023-05-22T17:03:36.053Z,101085.41
2023-05-22T17:06:37.874Z,101089.59
2023-05-22T17:09:39.774Z,101080.03
2023-05-22T17:12:41.372Z,101072.09
2023-05-22T17:15:43.034Z,101071.41
2023-05-22T17:18:44.606Z,101080.66
2023-05-22T17:21:46.214Z,101073.00
2023-05-22T17:24:49.132Z,101075.00
2023-05-22T17:27:50.812Z,101077.56
2023-05-22T17:30:52.599Z,101079.41
2023-05-22T17:33:54.439Z,101089.34
2023-05-22T17:36:56.014Z,101096.56
2023-05-22T17:39:57.680Z,101101.28
2023-05-22T17:43:01.339Z,101098.72
2023-05-22T17:46:03.205Z,101099.72
2023-05-22T17:49:04.810Z,101102.41
2023-05-22T17:52:08.550Z,101108.66
2023-05-22T17:55:10.564Z,101113.78
2023-05-22T17:58:13.166Z,101116.72
2023-05-22T18:01:14.940Z,101118.25
2023-05-22T18:04:16.559Z,101122.50
2023-05-22T18:07:19.984Z,101123.22
2023-05-22T18:10:24.745Z,101124.78
2023-05-22T18:13:26.316Z,101125.66
2023-05-22T18:16:28.048Z,101136.28
2023-05-22T18:19:29.795Z,101136.84
2023-05-22T18:22:31.528Z,101124.34
2023-05-22T18:25:33.147Z,101123.50
2023-05-22T18:28:34.759Z,101128.75
2023-05-22T18:31:36.345Z,101134.31
2023-05-22T18:34:37.957Z,101134.44
2023-05-22T18:37:39.604Z,101133.75
2023-05-22T18:40:41.479Z,101142.00
2023-05-22T18:43:43.315Z,101142.09
2023-05-22T18:46:44.951Z,101131.75
2023-05-22T18:49:46.610Z,101138.28
2023-05-22T18:52:48.247Z,101137.75
2023-05-22T18:55:52.164Z,101147.81
2023-05-22T18:58:55.573Z,101157.06
2023-05-22T19:01:57.388Z,101157.38
2023-05-22T19:04:59.109Z,101162.22
2023-05-22T19:08:00.867Z,101168.75
2023-05-22T19:11:02.604Z,101166.50
2023-05-22T19:14:04.682Z,101165.22
2023-05-22T19:17:06.411Z,101164.97
2023-05-22T19:20:08.764Z,101167.25
2023-05-22T19:23:11.715Z,101172.34
2023-05-22T19:26:13.350Z,101166.41
2023-05-22T19:29:14.973Z,101163.66
2023-05-22T19:32:16.640Z,101169.94
2023-05-22T19:35:18.285Z,101173.91
2023-05-22T19:38:20.129Z,101169.09
2023-05-22T19:41:23.136Z,101165.13
2023-05-22T19:44:24.843Z,101162.88
2023-05-22T19:47:27.314Z,101163.16
2023-05-22T19:50:29.084Z,101156.38
2023-05-22T19:53:34.195Z,101169.16
2023-05-22T19:56:35.853Z,101168.53
2023-05-22T20:02:40.040Z,101161.44
2023-05-22T20:05:41.963Z,101166.41
2023-05-22T20:08:44.289Z,101159.78
2023-05-22T20:11:45.864Z,101152.09
2023-05-22T20:14:47.709Z,101150.09
2023-05-22T20:17:52.014Z,101139.03
2023-05-22T20:20:53.737Z,101143.16
2023-05-22T20:23:55.847Z,101146.25
2023-05-22T20:26:57.732Z,101156.47
2023-05-22T20:30:00.341Z,101158.59
2023-05-22T20:33:03.758Z,101152.94
2023-05-22T20:36:06.486Z,101153.75
2023-05-22T20:39:10.935Z,101155.25
2023-05-22T20:42:13.217Z,101155.09
2023-05-22T20:45:16.025Z,101159.19
2023-05-22T20:48:18.173Z,101163.41
2023-05-22T20:51:21.001Z,101160.41
2023-05-22T20:54:23.483Z,101156.44
2023-05-22T20:57:25.680Z,101161.25
2023-05-22T21:00:28.435Z,101161.66
2023-05-22T21:03:30.928Z,101154.97
2023-05-22T21:06:32.869Z,101156.09
2023-05-22T21:09:34.957Z,101153.53
2023-05-22T21:12:36.882Z,101161.88
2023-05-22T21:15:39.538Z,101170.31
2023-05-22T21:18:41.844Z,101172.72
2023-05-22T21:21:44.398Z,101177.63
2023-05-22T21:24:46.690Z,101173.25
2023-05-22T21:27:49.466Z,101176.06
2023-05-22T21:30:51.190Z,101179.16
2023-05-22T21:33:52.746Z,101181.13
2023-05-22T21:36:54.373Z,101180.50
2023-05-22T21:39:55.990Z,101177.25
2023-05-22T21:42:57.994Z,101184.56
2023-05-22T21:45:59.596Z,101178.59
2023-05-22T21:49:03.301Z,101185.81
2023-05-22T21:52:05.116Z,101187.06
2023-05-22T21:55:07.430Z,101179.84
2023-05-22T21:58:10.331Z,101183.06
2023-05-22T22:01:12.070Z,101182.00
2023-05-22T22:04:13.686Z,101194.78
2023-05-22T22:07:15.332Z,101188.09
2023-05-22T22:10:17.008Z,101179.59
2023-05-22T22:13:18.609Z,101184.50
2023-05-22T22:16:22.137Z,101186.78
2023-05-22T22:19:24.178Z,101187.72
2023-05-22T22:22:26.028Z,101184.22
2023-05-22T22:25:27.775Z,101188.66
2023-05-22T22:28:29.414Z,101193.97
2023-05-22T22:31:31.076Z,101192.06
2023-05-22T22:34:32.704Z,101198.78
2023-05-22T22:37:34.266Z,101195.06
2023-05-22T22:40:35.908Z,101207.25
2023-05-22T22:43:37.788Z,101195.28
2023-05-22T22:46:39.403Z,101193.84
2023-05-22T22:49:41.063Z,101200.56
2023-05-22T22:52:45.794Z,101203.00
2023-05-22T22:55:48.923Z,101200.94
2023-05-22T22:58:51.234Z,101197.91
2023-05-22T23:01:52.979Z,101191.19
2023-05-22T23:04:54.669Z,101193.16
2023-05-22T23:07:58.378Z,101185.34
2023-05-22T23:11:00.169Z,101184.63
2023-05-22T23:14:03.804Z,101182.94
2023-05-22T23:17:05.826Z,101184.88
2023-05-22T23:20:08.976Z,101181.59
2023-05-22T23:23:10.593Z,101181.72
2023-05-22T23:26:12.163Z,101180.25
2023-05-22T23:29:13.761Z,101176.00
2023-05-22T23:32:15.369Z,101176.22
2023-05-22T23:35:17.100Z,101181.72
2023-05-22T23:38:18.657Z,101173.91
2023-05-22T23:41:20.263Z,101169.56
2023-05-22T23:44:21.885Z,101169.66
2023-05-22T23:47:23.539Z,101162.59
2023-05-22T23:50:25.175Z,101163.69
2023-05-22T23:53:26.758Z,101159.53
2023-05-22T23:56:28.482Z,101153.59
2023-05-22T23:59:30.108Z,101144.78
